Flight Track Log - Related Links

Times and Time Zones

All times are in EDT time to prevent confusion due to time zone crossing. See the N950DN flight status page for this flight to view local times or setup timezone preferences in your user account.

Time Position Orientation Groundspeed Altitude Reporting Facility
EDT Latitude Longitude Course Direction KTS MPH feet Rate Location/Type
Sat 09:05:19 AM 44.8833 -93.2500 276° West 173 199 2,300  Level Minneapolis TRACON
Sat 09:05:57 AM 44.8875 -93.3039 276° West 221 254 2,900 2,545 Climbing Minneapolis Center
Sat 09:06:58 AM 44.8308 -93.3406 205° Southwest 255 293 6,500 3,537 Climbing Minneapolis Center
Sat 09:08:11 AM 44.7725 -93.2558 134° Southeast 265 305 10,800 2,578 Climbing Minneapolis Center
Sat 09:09:13 AM 44.7103 -93.1375 126° Southeast 346 398 12,300 1,902 Climbing Minneapolis Center
Sat 09:10:14 AM 44.6464 -93.0183 127° Southeast 381 438 14,700 2,410 Climbing Minneapolis Center
Sat 09:11:15 AM 44.5789 -92.8917 127° Southeast 404 465 17,200 2,777 Climbing Minneapolis Center
Sat 09:12:15 AM 44.5097 -92.7625 127° Southeast 414 476 20,300 2,926 Climbing Minneapolis Center
Sat 09:13:16 AM 44.4306 -92.6167 127° Southeast 397 457 23,100 2,410 Climbing Minneapolis Center
Sat 09:14:17 AM 44.3625 -92.4900 127° Southeast 406 467 25,200 1,967 Climbing Minneapolis Center
Sat 09:15:18 AM 44.2989 -92.3569 124° Southeast 414 476 27,100 1,574 Climbing Minneapolis Center
Sat 09:16:19 AM 44.2408 -92.2181 120° Southeast 415 478 28,400 1,279 Climbing Minneapolis Center
Sat 09:17:20 AM 44.1781 -92.0747 121° Southeast 431 496 29,700 1,426 Climbing Minneapolis Center
Sat 09:18:21 AM 44.1156 -91.9306 121° Southeast 436 502 31,300 1,574 Climbing Minneapolis Center
Sat 09:19:22 AM 44.0525 -91.7889 122° Southeast 434 499 32,900 836 Climbing Minneapolis Center
Sat 09:20:23 AM 43.9944 -91.6578 122° Southeast 430 495 33,000 49 Climbing Minneapolis Center
Sat 09:21:24 AM 43.9214 -91.4917 121° Southeast 424 488 33,000  Level Minneapolis Center
Sat 09:22:25 AM 43.8422 -91.3719 132° Southeast 423 487 33,000  Level Minneapolis Center
Sat 09:23:26 AM 43.7600 -91.2550 134° Southeast 425 489 33,000  Level Minneapolis Center
Sat 09:24:27 AM 43.6775 -91.1397 135° Southeast 423 487 33,000  Level Minneapolis Center
Sat 09:25:28 AM 43.5947 -91.0258 135° Southeast 422 486 33,000  Level Minneapolis Center
Sat 09:26:29 AM 43.5131 -90.9111 134° Southeast 421 484 33,000  Level Minneapolis Center
Sat 09:27:30 AM 43.4300 -90.7972 135° Southeast 422 486 33,000  Level Minneapolis Center
Sat 09:28:31 AM 43.3483 -90.6847 135° Southeast 420 483 33,000  Level Minneapolis Center
Sat 09:29:18 AM 43.2828 -90.5969 136° Southeast 415 478 33,000  Level Chicago Center
Sat 09:30:19 AM 43.2019 -90.4853 135° Southeast 414 476 33,000  Level Chicago Center
Sat 09:31:21 AM 43.1206 -90.3750 135° Southeast 414 476 33,000  Level Chicago Center
Sat 09:32:22 AM 43.0394 -90.2664 136° Southeast 411 473 33,000  Level Chicago Center
Sat 09:33:24 AM 42.9439 -90.1364 135° Southeast 406 467 33,000  Level Chicago Center
Sat 09:34:25 AM 42.8633 -90.0283 135° Southeast 407 468 33,000  Level Chicago Center
Sat 09:35:26 AM 42.7833 -89.9211 135° Southeast 405 466 33,000  Level Chicago Center
Sat 09:36:28 AM 42.6986 -89.8092 136° Southeast 405 466 33,000  Level Chicago Center
Sat 09:37:29 AM 42.6172 -89.7025 136° Southeast 406 467 33,000  Level Chicago Center
Sat 09:38:31 AM 42.5358 -89.5967 136° Southeast 407 468 33,000  Level Chicago Center
Sat 09:39:32 AM 42.4561 -89.4908 136° Southeast 404 465 33,000  Level Chicago Center
Sat 09:40:33 AM 42.3742 -89.3856 136° Southeast 405 466 33,000  Level Chicago Center
Sat 09:41:35 AM 42.2797 -89.2614 136° Southeast 407 468 33,000  Level Chicago Center
Sat 09:42:36 AM 42.1981 -89.1556 136° Southeast 408 470 33,000  Level Chicago Center
Sat 09:43:38 AM 42.1172 -89.0489 136° Southeast 407 468 33,000  Level Chicago Center
Sat 09:44:39 AM 42.0431 -88.9547 137° Southeast 409 471 33,000  Level Chicago Center
Sat 09:45:41 AM 41.9292 -88.8567 147° Southeast 410 472 33,000  Level Chicago Center
Sat 09:46:42 AM 41.8253 -88.7956 156° South 408 470 33,000  Level Chicago Center
Sat 09:47:44 AM 41.7214 -88.7344 156° South 410 472 33,000  Level Chicago Center
Sat 09:48:45 AM 41.6167 -88.6719 156° South 414 476 33,000  Level Chicago Center
Sat 09:49:47 AM 41.5125 -88.6125 157° South 412 474 33,000  Level Chicago Center
Sat 09:50:48 AM 41.4094 -88.5508 156° South 411 473 33,000  Level Chicago Center
Sat 09:51:50 AM 41.2850 -88.4792 157° South 413 475 33,000  Level Chicago Center
Sat 09:52:52 AM 41.1814 -88.4192 156° South 412 474 33,000  Level Chicago Center
Sat 09:53:53 AM 41.0772 -88.3594 157° South 412 474 33,000  Level Chicago Center
Sat 09:54:55 AM 40.9719 -88.2981 156° South 417 480 33,000  Level Chicago Center
Sat 09:55:56 AM 40.8669 -88.2381 157° South 415 478 33,000  Level Chicago Center
Sat 09:56:58 AM 40.7636 -88.1783 156° South 411 473 33,000  Level Chicago Center
Sat 09:57:59 AM 40.6372 -88.1061 157° South 413 475 33,000  Level Chicago Center
Sat 09:59:01 AM 40.5333 -88.0464 156° South 411 473 33,000  Level Chicago Center
Sat 10:00:02 AM 40.4281 -87.9872 157° South 413 475 33,000  Level Chicago Center
Sat 10:01:04 AM 40.3242 -87.9281 157° South 413 475 33,000  Level Chicago Center
Sat 10:02:05 AM 40.2194 -87.8703 157° South 411 473 33,000  Level Chicago Center
Sat 10:03:07 AM 40.1047 -87.8067 157° South 413 475 33,000  Level Chicago Center
Sat 10:04:08 AM 39.9994 -87.7492 157° South 412 474 33,000  Level Chicago Center
Sat 10:05:06 AM 39.8933 -87.6906 157° South 412 474 33,000  Level Indianapolis Center
Sat 10:06:07 AM 39.7881 -87.6336 157° South 412 474 33,000  Level Indianapolis Center
Sat 10:07:09 AM 39.6847 -87.5767 157° South 406 467 33,000  Level Indianapolis Center
Sat 10:08:11 AM 39.5808 -87.5192 157° South 409 471 33,000  Level Indianapolis Center
Sat 10:09:12 AM 39.4783 -87.4633 157° South 403 464 33,000  Level Indianapolis Center
Sat 10:10:14 AM 39.3544 -87.3958 157° South 405 466 33,000  Level Indianapolis Center
Sat 10:11:15 AM 39.2514 -87.3394 157° South 404 465 33,000  Level Indianapolis Center
Sat 10:12:17 AM 39.1483 -87.2833 157° South 405 466 33,000  Level Indianapolis Center
Sat 10:13:19 AM 39.0458 -87.2281 157° South 402 463 33,000  Level Indianapolis Center
Sat 10:14:20 AM 38.9417 -87.1728 158° South 402 463 33,000  Level Indianapolis Center
Sat 10:15:22 AM 38.8375 -87.1183 158° South 401 461 33,000  Level Indianapolis Center
Sat 10:16:23 AM 38.7339 -87.0614 157° South 402 463 33,000  Level Indianapolis Center
Sat 10:17:25 AM 38.6289 -87.0061 158° South 403 464 33,000  Level Indianapolis Center
Sat 10:18:27 AM 38.5025 -86.9383 157° South 404 465 33,000 146 Level Indianapolis Center
Sat 10:19:28 AM 38.3956 -86.8819 158° South 406 467 33,300 878 Climbing Indianapolis Center
Sat 10:20:30 AM 38.2886 -86.8253 157° South 406 467 34,800 823 Climbing Indianapolis Center
Sat 10:21:32 AM 38.1847 -86.7711 158° South 399 459 35,000 98 Climbing Indianapolis Center
Sat 10:22:33 AM 38.0831 -86.7164 157° South 394 453 35,000  Level Indianapolis Center
Sat 10:23:35 AM 37.9814 -86.6650 158° South 391 450 35,000  Level Indianapolis Center
Sat 10:24:36 AM 37.8800 -86.6117 157° South 391 450 35,000  Level Indianapolis Center
Sat 10:25:38 AM 37.7800 -86.5589 157° South 388 447 35,000  Level Indianapolis Center
Sat 10:26:39 AM 37.6733 -86.5053 158° South 388 447 35,000  Level Indianapolis Center
Sat 10:27:41 AM 37.5708 -86.4528 158° South 395 455 35,000  Level Indianapolis Center
Sat 10:28:43 AM 37.4694 -86.4000 158° South 392 451 35,000  Level Indianapolis Center
Sat 10:29:44 AM 37.3675 -86.3481 158° South 393 452 35,000  Level Indianapolis Center
Sat 10:30:08 AM 37.3311 -86.3294 158° South 394 453 35,000  Level Memphis Center
Sat 10:31:08 AM 37.2294 -86.2775 158° South 394 453 35,000  Level Memphis Center
Sat 10:32:08 AM 37.1319 -86.2278 158° South 388 447 35,000  Level Memphis Center
Sat 10:33:08 AM 37.0342 -86.1756 157° South 383 441 35,000  Level Memphis Center
Sat 10:34:08 AM 36.9367 -86.1264 158° South 383 441 35,000  Level Memphis Center
Sat 10:35:08 AM 36.8244 -86.0700 158° South 383 441 35,000  Level Memphis Center
Sat 10:36:08 AM 36.7247 -86.0183 157° South 383 441 35,000  Level Memphis Center
Sat 10:37:08 AM 36.6208 -85.9672 158° South 383 441 35,000  Level Memphis Center
Sat 10:38:08 AM 36.5189 -85.9183 159° South 388 447 35,000  Level Memphis Center
Sat 10:39:08 AM 36.4211 -85.8669 157° South 388 447 35,000  Level Memphis Center
Sat 10:40:08 AM 36.3300 -85.8231 159° South 388 447 35,000  Level Memphis Center
Sat 10:41:08 AM 36.2303 -85.7747 159° South 388 447 35,000  Level Memphis Center
Sat 10:42:08 AM 36.1325 -85.7261 158° South 388 447 35,000  Level Memphis Center
Sat 10:43:08 AM 36.0328 -85.6753 158° South 388 447 35,000  Level Memphis Center
Sat 10:44:25 AM 35.9044 -85.6128 158° South 391 450 35,000  Level Atlanta Center
Sat 10:45:25 AM 35.8047 -85.5647 159° South 391 450 35,000  Level Atlanta Center
Sat 10:46:25 AM 35.7031 -85.5169 159° South 391 450 35,000  Level Atlanta Center
Sat 10:47:25 AM 35.5892 -85.4611 158° South 391 450 35,000  Level Atlanta Center
Sat 10:48:25 AM 35.4875 -85.4108 158° South 391 450 35,000  Level Atlanta Center
Sat 10:49:25 AM 35.3836 -85.3608 159° South 396 456 35,000  Level Atlanta Center
Sat 10:50:25 AM 35.2864 -85.2956 151° Southeast 396 456 35,000  Level Atlanta Center
Sat 10:51:25 AM 35.1869 -85.2231 149° Southeast 402 463 35,000  Level Atlanta Center
Sat 10:52:25 AM 35.0914 -85.1506 148° Southeast 412 474 35,000  Level Atlanta Center
Sat 10:53:25 AM 34.9942 -85.0733 147° Southeast 412 474 35,000  Level Atlanta Center
Sat 10:54:25 AM 34.8986 -84.9986 147° Southeast 412 474 35,000  Level Atlanta Center
Sat 10:55:25 AM 34.8011 -84.9242 148° Southeast 412 474 35,000  Level Atlanta Center
Sat 10:56:25 AM 34.7036 -84.8497 148° Southeast 412 474 35,000  Level Atlanta Center
Sat 10:57:25 AM 34.6186 -84.7783 145° Southeast 412 474 35,000  Level Atlanta Center
Sat 10:58:25 AM 34.5189 -84.7019 148° Southeast 417 480 35,000  Level Atlanta Center
Sat 10:59:25 AM 34.4211 -84.6281 148° Southeast 417 480 35,000  Level Atlanta Center
Sat 11:00:25 AM 34.3108 -84.5442 148° Southeast 422 486 35,000  Level Atlanta Center
Sat 11:01:25 AM 34.2108 -84.4683 148° Southeast 427 491 35,000  Level Atlanta Center
Sat 11:02:25 AM 34.1153 -84.4000 149° Southeast 427 491 35,000  Level Atlanta Center
Sat 11:03:25 AM 34.0089 -84.3219 149° Southeast 438 504 35,000  Level Atlanta Center
Sat 11:04:25 AM 33.9108 -84.2467 147° Southeast 438 504 35,000  Level Atlanta Center
Sat 11:05:25 AM 33.8089 -84.1664 147° Southeast 438 504 35,000  Level Atlanta Center
Sat 11:06:25 AM 33.7044 -84.0861 147° Southeast 438 504 35,000  Level Atlanta Center
Sat 11:07:25 AM 33.5939 -84.0264 156° South 438 504 35,000  Level Atlanta Center
Sat 11:08:25 AM 33.4769 -83.9792 161° South 444 511 35,000  Level Atlanta Center
Sat 11:09:25 AM 33.3517 -83.9294 162° South 444 511 35,000  Level Atlanta Center
Sat 11:10:25 AM 33.2328 -83.8775 160° South 444 511 35,000 -400 Level Atlanta Center
Sat 11:11:25 AM 33.1178 -83.8306 161° South 444 511 34,200 -750 Descending Atlanta Center
Sat 11:12:25 AM 33.0239 -83.7886 159° South 444 511 33,500 -800 Descending Atlanta Center
Sat 11:13:25 AM 32.8983 -83.7394 162° South 444 511 32,600 -1,000 Descending Atlanta Center
Sat 11:14:25 AM 32.7772 -83.6856 159° South 444 511 31,500 -1,100 Descending Atlanta Center
Sat 11:15:25 AM 32.6581 -83.6219 156° South 455 524 30,400 -950 Descending Atlanta Center
Sat 11:16:25 AM 32.5575 -83.5214 140° Southeast 461 531 29,600 -900 Descending Atlanta Center
Sat 11:17:25 AM 32.4589 -83.4183 139° Southeast 466 536 28,600 -1,111 Descending Atlanta Center
Sat 11:19:07 AM 32.2747 -83.2342 140° Southeast 479 551 26,600 -1,148 Descending Jacksonville Center
Sat 11:20:07 AM 32.1725 -83.1331 140° Southeast 479 551 25,500 -1,100 Descending Jacksonville Center
Sat 11:21:07 AM 32.0725 -83.0347 140° Southeast 479 551 24,400 -900 Descending Jacksonville Center
Sat 11:22:07 AM 31.9725 -82.9367 140° Southeast 479 551 23,700 -800 Descending Jacksonville Center
Sat 11:23:07 AM 31.8742 -82.8389 140° Southeast 474 545 22,800 -750 Descending Jacksonville Center
Sat 11:24:07 AM 31.7781 -82.7436 140° Southeast 469 540 22,200 -700 Descending Jacksonville Center
Sat 11:25:07 AM 31.6778 -82.6508 142° Southeast 464 534 21,400 -750 Descending Jacksonville Center
Sat 11:26:07 AM 31.5814 -82.5561 140° Southeast 459 528 20,700 -600 Descending Jacksonville Center
Sat 11:27:07 AM 31.4789 -82.4808 148° Southeast 454 522 20,200 -500 Descending Jacksonville Center
Sat 11:28:07 AM 31.3661 -82.4231 156° South 441 507 19,700 -650 Descending Jacksonville Center
Sat 11:29:07 AM 31.2636 -82.3772 159° South 435 501 18,900 -1,222 Descending Jacksonville Center
Sat 11:29:55 AM 31.1672 -82.3269 156° South 431 496 17,500 -2,167 Descending Jacksonville Center
Sat 11:30:19 AM 31.1253 -82.3078 159° South 419 482 16,300 -2,667 Descending Jacksonville Center
Sat 11:31:07 AM 31.0522 -82.2717 157° South 424 488 14,300 -2,333 Descending Jacksonville Center
Sat 11:32:07 AM 30.9600 -82.2167 153° Southeast 394 453 12,100 -2,400 Descending Jacksonville Center
Sat 11:32:27 AM 30.9222 -82.1975 156° South 344 396 11,100 -1,600 Descending Jacksonville Center
Sat 11:33:07 AM 30.8742 -82.1786 161° South 360 414 10,500 -1,091 Descending Jacksonville Center
Sat 11:33:22 AM 30.8450 -82.1692 164° South 305 351 10,100 -1,000 Descending Jacksonville Center
Sat 11:34:07 AM 30.7967 -82.1550 166° South 319 367 9,500 -1,315 Descending Jacksonville Center
Sat 11:34:35 AM 30.7611 -82.1431 164° South 263 303 8,500 -1,500 Descending Jacksonville Center
Sat 11:35:07 AM 30.7256 -82.1314 164° South 287 330 8,000 -1,400 Descending Jacksonville Center
Sat 11:35:35 AM 30.6881 -82.1292 177° South 259 298 7,100 -1,500 Descending Jacksonville Center
Sat 11:36:07 AM 30.6547 -82.1247 173° South 267 307 6,500 -1,418 Descending Jacksonville Center
Sat 11:36:30 AM 30.6233 -82.1250 180° South 252 290 5,800 -1,800 Descending Jacksonville Center
Sat 11:37:07 AM 30.5775 -82.1228 178° South 255 293 4,700 -1,612 Descending Jacksonville Center
Sat 11:37:37 AM 30.5439 -82.1231 180° South 246 283 4,000 -1,500 Descending Jacksonville Center
Sat 11:38:07 AM 30.5106 -82.1258 184° South 248 285 3,200 -1,000 Descending Jacksonville Center
Sat 11:38:37 AM 30.4772 -82.1261 180° South 243 280 3,000 -300 Descending Jacksonville Center
Sat 11:39:07 AM 30.4458 -82.1264 180° South 248 285 2,900 -90 Descending Jacksonville Center
Sat 11:39:44 AM 30.4061 -82.1292 183° South 231 266 2,900 -419 Level Jacksonville Center
Sat 11:40:33 AM 30.3561 -82.1367 187° South 201 231 2,300 -422 Descending Jacksonville Center
Sat 11:41:52 AM 30.3039 -82.1178 163° South 153 176 2,000 -149 Descending Jacksonville Center
Sat 11:42:34 AM 30.2744 -82.0989 151° Southeast 154 177 2,000  Level Jacksonville Center
Sat 11:43:53 AM 30.2511 -82.0533 121° Southeast 112 129 2,000 -47 Level Jacksonville Center
Sat 11:44:42 AM 30.2428 -82.0244 108° East 116 133 1,900 -164 Descending Jacksonville Center
Sat 11:45:43 AM 30.2342 -81.9886 106° East 117 135 1,700 -375 Descending Jacksonville Center
Sat 11:46:50 AM 30.2256 -81.9503 105° East 119 137 1,100 47 Descending Jacksonville Center
Sat 11:47:50 AM 30.2147 -81.9094 107° East 124 143 1,800 744 Climbing Jacksonville Center
Sat 11:48:51 AM 30.1794 -81.9267 203° Southwest 233 268 2,600 621 Climbing Jacksonville Center
Sat 11:49:46 AM 30.1756 -81.9914 266° West 221 254 3,000 207 Climbing Jacksonville Center
Sat 11:50:47 AM 30.1719 -82.0636 267° West 221 254 3,000  Level Jacksonville Center
Sat 11:51:42 AM 30.1722 -82.1236 270° West 220 253 3,000 574 Level Jacksonville Center
Sat 11:52:42 AM 30.2183 -82.1161 North 174 200 4,100 928 Climbing Jacksonville Center
Sat 11:54:00 AM 30.2468 -81.9653 78° East  Level FlightAware Approximate
Sat 11:54:56 AM 30.2172 -81.9864 78° East 181 208 6,000  Level Jacksonville Center
Sat 11:55:45 AM 30.2128 -81.9431 97° East 180 207 6,000  Level Jacksonville Center
Sat 11:56:51 AM 30.2125 -81.8783 90° East 182 209 6,000  Level Jacksonville Center
Sat 11:57:52 AM 30.1703 -81.8475 148° Southeast 181 208 6,000  Level Jacksonville Center
Sat 11:58:53 AM 30.1289 -81.8886 221° Southwest 234 269 6,000  Level Jacksonville Center
Sat 11:59:54 AM 30.1419 -81.9631 281° West 232 267 6,000  Level Jacksonville Center
Sat 12:00:55 PM 30.1614 -82.0350 287° West 231 266 6,000  Level Jacksonville Center

Login

Don't have an account? Register now (free) for customized features, flight alerts, and more!